M I D A S
Marine Information and Data Acquisition System
Tripno 1831 of the Zeeleeuw from 2009-12-11 07:23:24 to 2009-12-11 15:23:04
Back to CruiseResearch ActivitiesStationsMapUnderway DataData graphs

EquipmentUnitsComment
TimeDGPSUTC
LatitudeDGPSDM.mWGS84
LongitudeDGPSDM.mWGS84
TemperatureSBE03/SBE38deg celciusITS90
ConductivitySBE21S/mITS90
SalinitySBE21 Practical Salinity Units
ChlorophylAChelsea fluorimeterg/lCalibrated in Aceton
Missing or incorrect values are displayed as -999
Sea surface data collected by the RV Zeeleeuw from 2009-12-11 07:21:24 to 2009-12-11 16:03:35
Time Latitude Longitude Temperature Conductivity Salinity ChlorophylA
2009-12-11 07:22:32 51°13.683 2°55.871 16.0586 0.031712 0.186602 0.113802
2009-12-11 07:23:32 51°13.721 2°55.766 16.097 0.032226 0.189687 0.113802
2009-12-11 07:24:32 51°13.775 2°55.68 16.1197 0.031712 0.186598 0.113802
2009-12-11 07:25:33 51°13.849 2°55.634 16.1005 0.031814 0.187199 0.113802
2009-12-11 07:26:32 51°13.912 2°55.629 16.0086 0.031814 0.187206 0.113802
2009-12-11 07:27:30 51°13.932 2°55.636 15.9828 0.031094 0.182844 0.148626
2009-12-11 07:28:29 51°13.955 2°55.552 15.9917 0.030477 0.179114 0.113802
2009-12-11 07:29:28 51°14.066 2°55.455 15.9287 0.029242 0.171766 0.113802
2009-12-11 07:30:28 51°14.201 2°55.332 15.9313 0.028316 0.166185 0.113802
2009-12-11 07:31:29 51°14.315 2°55.119 15.6638 0.028213 0.165975 0.148626
2009-12-11 07:32:28 51°14.408 2°54.889 15.7514 0.029551 0.174853 0.148626
2009-12-11 07:33:29 51°14.375 2°54.643 15.668 0.028933 0.171399 0.253098
2009-12-11 07:34:28 51°14.325 2°54.403 15.6543 0.031403 0.186235 0.218274
2009-12-11 07:35:29 51°14.287 2°54.145 15.74 0.033152 0.196829 0.253098
2009-12-11 07:36:28 51°14.25 2°53.899 15.7608 0.032535 0.193142 0.218274
2009-12-11 07:37:29 51°14.215 2°53.638 15.7896 0.031506 0.186881 0.218274
2009-12-11 07:38:29 51°14.145 2°53.405 15.8317 0.036445 0.216873 0.18345
2009-12-11 07:39:28 51°14.06 2°53.193 15.8626 0.040459 0.241312 0.18345
2009-12-11 07:40:28 51°13.975 2°52.977 15.9061 0.030168 0.178841 0.218274
2009-12-11 07:41:28 51°13.89 2°52.76 15.9362 0.030683 0.181982 0.18345
2009-12-11 07:42:28 51°13.805 2°52.545 15.985 0.032432 0.192528 0.18345
2009-12-11 07:43:28 51°13.723 2°52.322 16.076 0.032226 0.19128 0.18345
2009-12-11 07:44:28 51°13.641 2°52.1 16.0643 0.030168 0.178886 0.218274
2009-12-11 07:45:28 51°13.56 2°51.876 16.1229 0.032844 0.195016 0.18345
2009-12-11 07:46:28 51°13.475 2°51.659 16.0848 0.033461 0.198774 0.18345
2009-12-11 07:47:28 51°13.395 2°51.436 16.1395 0.038504 0.229375 0.18345
2009-12-11 07:48:28 51°13.322 2°51.27 16.1487 0.033873 0.20127 0.18345
2009-12-11 07:49:28 51°13.271 2°51.284 16.1535 0.028521 0.168901 0.18345
2009-12-11 07:50:28 51°13.257 2°51.331 16.1573 0.030785 0.182581 0.18345
2009-12-11 07:51:29 51°13.259 2°51.352 16.306 0.031917 0.189457 0.18345
2009-12-11 07:52:29 51°13.258 2°51.368 16.3445 0.031094 0.184445 0.18345
2009-12-11 07:53:29 51°13.26 2°51.387 16.3553 0.028316 0.167657 0.18345
2009-12-11 07:54:28 51°13.26 2°51.406 16.3754 0.030065 0.17819 0.18345
2009-12-11 07:55:29 51°13.261 2°51.427 16.394 0.029242 0.17325 0.18345
2009-12-11 07:56:28 51°13.261 2°51.449 16.4248 0.028007 0.165821 0.18345
2009-12-11 07:57:28 51°13.262 2°51.474 16.4311 0.028007 0.165767 0.18345
2009-12-11 07:58:28 51°13.233 2°51.539 16.5061 0.031712 0.188152 0.18345
2009-12-11 07:59:29 51°13.181 2°51.505 16.4966 0.031197 0.184944 0.18345
2009-12-11 08:00:28 51°13.135 2°51.421 16.518 0.037474 0.223028 0.18345
2009-12-11 08:01:28 51°13.113 2°51.348 16.5482 0.034078 0.202517 0.18345
2009-12-11 08:02:29 51°13.099 2°51.274 16.5525 0.030271 0.179464 0.18345
2009-12-11 08:03:28 51°13.088 2°51.192 16.5822 0.031506 0.186935 0.148626
2009-12-11 08:04:29 51°13.078 2°51.106 16.593 0.029756 0.176316 0.148626
2009-12-11 08:05:28 51°13.066 2°51.023 16.6397 0.029653 0.175637 0.18345
2009-12-11 08:06:28 51°13.037 2°50.954 16.6492 0.033461 0.198739 0.148626
2009-12-11 08:07:29 51°13.005 2°50.884 16.678 0.030785 0.182538 0.18345
2009-12-11 08:08:28 51°12.973 2°50.809 16.6807 0.03449 0.20498 0.18345
2009-12-11 08:09:29 51°12.948 2°50.727 16.7213 0.031094 0.184449 0.18345
2009-12-11 08:10:28 51°12.939 2°50.636 16.7385 0.028727 0.170172 0.18345
2009-12-11 08:11:29 51°12.932 2°50.54 16.7615 0.029448 0.174561 0.148626
2009-12-11 08:12:28 51°12.919 2°50.449 16.7853 0.031712 0.188192 0.148626
2009-12-11 08:13:29 51°12.901 2°50.355 16.8029 0.029962 0.177595 0.18345
2009-12-11 08:14:28 51°12.882 2°50.264 16.8253 0.032947 0.195691 0.148626
2009-12-11 08:15:28 51°12.865 2°50.172 16.8515 0.032123 0.190711 0.148626
2009-12-11 08:16:29 51°12.847 2°50.078 16.8726 0.028007 0.16585 0.148626
2009-12-11 08:17:29 51°12.819 2°49.994 16.9507 0.029036 0.17208 0.148626
2009-12-11 08:18:29 51°12.785 2°49.914 16.9894 0.028624 0.169603 0.148626
2009-12-11 08:19:29 51°12.757 2°49.831 17.0432 0.028933 0.171451 0.148626
2009-12-11 08:20:29 51°12.731 2°49.745 17.0357 0.029756 0.176483 0.18345
2009-12-11 08:21:28 51°12.705 2°49.66 17.0784 0.031197 0.185188 0.148626
2009-12-11 08:22:29 51°12.677 2°49.573 17.0948 0.030785 0.182669 0.148626
2009-12-11 08:23:28 51°12.65 2°49.489 17.1127 0.028316 0.167776 0.18345
2009-12-11 08:24:28 51°12.615 2°49.411 17.1205 0.030271 0.179582 0.148626
2009-12-11 08:25:28 51°12.583 2°49.331 17.1441 0.029756 0.176466 0.148626
2009-12-11 08:26:29 51°12.548 2°49.25 17.1603 0.03058 0.181439 0.18345
2009-12-11 08:27:29 51°12.514 2°49.172 17.1736 0.027595 0.163476 0.218274
2009-12-11 08:28:29 51°12.481 2°49.09 17.1884 0.02883 0.170935 0.18345
2009-12-11 08:29:29 51°12.446 2°49.01 17.2017 0.029345 0.174083 0.18345
2009-12-11 08:30:28 51°12.412 2°48.932 17.2148 0.0313 0.185924 0.18345
2009-12-11 08:31:29 51°12.377 2°48.852 17.2312 0.03058 0.18166 0.18345
2009-12-11 08:32:28 51°12.347 2°48.772 17.2461 0.029551 0.175329 0.18345
2009-12-11 08:33:28 51°12.322 2°48.685 17.264 0.028213 0.167396 0.18345
2009-12-11 08:34:28 51°12.297 2°48.597 17.2763 0.029242 0.173544 0.18345
2009-12-11 08:35:28 51°12.271 2°48.508 17.2925 0.029448 0.174787 0.18345
2009-12-11 08:36:28 51°12.247 2°48.42 17.3092 0.028007 0.166104 0.18345
2009-12-11 08:37:28 51°12.244 2°48.327 17.3321 0.032226 0.191601 0.18345
2009-12-11 08:38:29 51°12.262 2°48.239 17.3477 0.02883 0.171086 0.18345
2009-12-11 08:39:28 51°12.289 2°48.171 17.3632 0.029242 0.173541 0.18345
2009-12-11 08:40:29 51°12.321 2°48.117 17.3692 0.02883 0.171063 0.218274
2009-12-11 08:41:28 51°12.339 2°48.099 17.4017 0.030991 0.184153 0.18345
2009-12-11 08:42:28 51°12.347 2°48.102 17.4092 0.028419 0.168597 0.18345
2009-12-11 08:43:28 51°12.351 2°48.096 17.4297 0.029345 0.174234 0.18345
2009-12-11 08:44:28 51°12.333 2°48.001 17.431 0.029551 0.175461 0.18345
2009-12-11 08:45:29 51°12.29 2°47.799 17.4491 0.028213 0.167431 0.18345
2009-12-11 08:46:28 51°12.223 2°47.568 17.4679 0.035108 0.209285 0.18345
2009-12-11 08:47:29 51°12.169 2°47.311 17.4825 0.031094 0.184936 0.18345
2009-12-11 08:48:29 51°12.122 2°47.055 17.4868 0.033461 0.199303 0.18345
2009-12-11 08:49:29 51°12.075 2°46.798 17.5037 0.030168 0.179315 0.18345
2009-12-11 08:50:28 51°12.019 2°46.551 17.5098 0.037989 0.226946 0.18345
2009-12-11 08:51:29 51°11.975 2°46.286 17.5266 0.03696 0.220675 0.18345
2009-12-11 08:52:28 51°11.935 2°46.03 17.5421 0.032123 0.191276 0.18345
2009-12-11 08:53:29 51°11.891 2°45.766 17.5504 0.035108 0.209384 0.18345
2009-12-11 08:54:28 51°11.85 2°45.507 17.5612 0.033976 0.202523 0.18345
2009-12-11 08:55:28 51°11.807 2°45.249 17.5952 0.035005 0.208832 0.18345
2009-12-11 08:56:29 51°11.761 2°44.985 17.5924 0.037577 0.224573 0.18345
2009-12-11 08:57:28 51°11.722 2°44.731 17.5904 0.031197 0.185786 0.148626
2009-12-11 08:58:28 51°11.679 2°44.474 17.6065 0.034387 0.205163 0.148626
2009-12-11 08:59:28 51°11.64 2°44.219 17.6308 0.031506 0.187682 0.18345
2009-12-11 09:00:28 51°11.599 2°43.965 17.6541 0.031917 0.190188 0.18345
2009-12-11 09:01:28 51°11.567 2°43.707 17.6424 0.035725 0.213367 0.18345
2009-12-11 09:02:28 51°11.544 2°43.446 17.6782 0.032947 0.196461 0.18345
2009-12-11 09:03:28 51°11.521 2°43.183 17.682 0.031506 0.187744 0.18345
2009-12-11 09:04:28 51°11.489 2°42.925 17.7172 0.031403 0.187128 0.18345
2009-12-11 09:05:29 51°11.445 2°42.668 17.7266 0.035108 0.209693 0.148626
2009-12-11 09:06:28 51°11.386 2°42.427 17.7377 0.032123 0.191545 0.148626
2009-12-11 09:07:29 51°11.299 2°42.199 17.7126 0.031403 0.187259 0.218274
2009-12-11 09:08:28 51°11.188 2°42.008 17.7142 0.029859 0.1779 0.218274
2009-12-11 09:09:28 51°11.074 2°41.816 17.7715 0.03377 0.201679 0.18345
2009-12-11 09:10:28 51°10.977 2°41.606 17.7999 0.030271 0.180423 0.148626
2009-12-11 09:11:28 51°11.025 2°41.501 17.8266 0.035313 0.211157 0.148626
2009-12-11 09:12:29 51°11.127 2°41.622 17.8682 0.029242 0.174149 0.148626
2009-12-11 09:13:28 51°11.279 2°41.728 17.9098 0.02811 0.167343 0.18345
2009-12-11 09:14:28 51°11.451 2°41.784 17.9716 0.028316 0.168618 0.148626
2009-12-11 09:15:28 51°11.624 2°41.817 17.9915 0.028316 0.168686 0.148626
2009-12-11 09:16:29 51°11.753 2°41.797 18.0178 0.028316 0.168729 0.148626
2009-12-11 09:17:28 51°11.75 2°41.732 18.0579 0.029139 0.173729 0.148626
2009-12-11 09:18:28 51°11.721 2°41.698 18.0982 0.030991 0.18498 0.148626
2009-12-11 09:19:28 51°11.673 2°41.644 18.1291 0.028624 0.170604 0.148626
2009-12-11 09:20:29 51°11.63 2°41.559 18.1653 0.03202 0.191201 0.148626
2009-12-11 09:21:28 51°11.611 2°41.497 18.1907 0.031197 0.186167 0.148626
2009-12-11 09:22:29 51°11.594 2°41.435 18.2231 0.033358 0.199468 0.148626
2009-12-11 09:23:29 51°11.571 2°41.369 18.2542 0.030785 0.18372 0.148626
2009-12-11 09:24:29 51°11.538 2°41.309 18.2935 0.030168 0.179975 0.148626
2009-12-11 09:25:28 51°11.501 2°41.253 18.3121 0.031712 0.189407 0.148626
2009-12-11 09:26:28 51°11.462 2°41.199 18.3494 0.031197 0.186317 0.148626
2009-12-11 09:27:29 51°11.422 2°41.144 18.3689 0.033564 0.200738 0.148626
2009-12-11 09:28:28 51°11.387 2°41.09 18.364 0.030271 0.180684 0.148626
2009-12-11 09:29:29 51°11.349 2°41.032 18.4177 0.033564 0.200718 0.148626
2009-12-11 09:30:29 51°11.311 2°40.972 18.4415 0.030271 0.180652 0.148626
2009-12-11 09:31:28 51°11.272 2°40.913 18.4749 0.033152 0.198217 0.148626
2009-12-11 09:32:29 51°11.229 2°40.859 18.4879 0.030271 0.180666 0.148626
2009-12-11 09:33:28 51°11.185 2°40.809 18.49 0.030888 0.184441 0.148626
2009-12-11 09:34:29 51°11.137 2°40.761 18.5094 0.030271 0.180694 0.148626
2009-12-11 09:35:28 51°11.088 2°40.715 18.5359 0.031094 0.185699 0.148626
2009-12-11 09:36:29 51°11.037 2°40.665 18.565 0.029242 0.174447 0.148626
2009-12-11 09:37:28 51°10.983 2°40.624 18.5948 0.034902 0.208937 0.148626
2009-12-11 09:38:28 51°10.931 2°40.585 18.5918 0.029242 0.174488 0.148626
2009-12-11 09:39:28 51°10.878 2°40.545 18.6145 0.029551 0.176382 0.148626
2009-12-11 09:40:29 51°10.826 2°40.504 18.6431 0.029036 0.173238 0.148626
2009-12-11 09:41:28 51°10.788 2°40.449 18.6453 0.032741 0.195833 0.148626
2009-12-11 09:42:29 51°10.761 2°40.379 18.6814 0.030991 0.185179 0.148626
2009-12-11 09:43:29 51°10.74 2°40.305 18.6668 0.03377 0.202312 0.148626
2009-12-11 09:44:28 51°10.719 2°40.233 18.6918 0.034387 0.206095 0.148626
2009-12-11 09:45:29 51°10.708 2°40.157 18.723 0.033255 0.199201 0.148626
2009-12-11 09:46:28 51°10.706 2°40.08 18.7172 0.032844 0.196607 0.148626
2009-12-11 09:47:29 51°10.701 2°39.999 18.745 0.034181 0.204877 0.148626
2009-12-11 09:48:28 51°10.687 2°39.922 18.7542 0.032329 0.193507 0.148626
2009-12-11 09:49:29 51°10.665 2°39.847 18.7831 0.032947 0.197312 0.148626
2009-12-11 09:50:29 51°10.632 2°39.78 18.8109 0.031712 0.189749 0.148626
2009-12-11 09:51:28 51°10.597 2°39.715 18.8052 0.031403 0.18792 0.148626
2009-12-11 09:52:29 51°10.562 2°39.648 18.8318 0.034593 0.207415 0.148626
2009-12-11 09:53:28 51°10.529 2°39.582 18.8394 0.034284 0.205596 0.148626
2009-12-11 09:54:29 51°10.496 2°39.514 18.8559 0.032123 0.192416 0.148626
2009-12-11 09:55:28 51°10.466 2°39.446 18.8646 0.034902 0.209425 0.148626
2009-12-11 09:56:29 51°10.434 2°39.376 18.8773 0.033049 0.198093 0.148626
2009-12-11 09:57:28 51°10.403 2°39.307 18.8733 0.030683 0.183572 0.18345
2009-12-11 09:58:28 51°10.385 2°39.231 18.9129 0.0313 0.187327 0.148626
2009-12-11 09:59:28 51°10.383 2°39.156 18.9215 0.032947 0.197441 0.148626
2009-12-11 10:00:28 51°10.391 2°39.085 18.9286 0.03202 0.191886 0.148626
2009-12-11 10:01:29 51°10.412 2°39.021 18.9434 0.0313 0.187382 0.148626
2009-12-11 10:02:28 51°10.429 2°38.977 18.9596 0.029551 0.176681 0.18345
2009-12-11 10:03:29 51°10.45 2°38.929 18.9677 0.029756 0.177956 0.148626
2009-12-11 10:04:28 51°10.473 2°38.877 18.9758 0.029756 0.177966 0.148626
2009-12-11 10:05:29 51°10.512 2°38.799 18.9843 0.031094 0.186139 0.148626
2009-12-11 10:06:28 51°10.523 2°38.768 19.0147 0.030065 0.179818 0.148626
2009-12-11 10:07:28 51°10.522 2°38.754 19.0044 0.030374 0.181705 0.148626
2009-12-11 10:08:28 51°10.515 2°38.749 19.0197 0.031094 0.186117 0.148626
2009-12-11 10:09:28 51°10.512 2°38.721 19.0349 0.030477 0.182406 0.148626
2009-12-11 10:10:29 51°10.542 2°38.602 19.0533 0.033564 0.201277 0.148626
2009-12-11 10:11:28 51°10.565 2°38.533 19.0407 0.031609 0.189364 0.148626
2009-12-11 10:12:29 51°10.572 2°38.5 19.0686 0.030271 0.181207 0.148626
2009-12-11 10:13:28 51°10.572 2°38.486 19.0872 0.03202 0.192011 0.148626
2009-12-11 10:14:29 51°10.571 2°38.455 19.08 0.034284 0.205836 0.18345
2009-12-11 10:15:28 51°10.532 2°38.396 19.1026 0.028316 0.169398 0.18345
2009-12-11 10:16:29 51°10.431 2°38.469 19.1286 0.027081 0.161911 0.18345
2009-12-11 10:17:29 51°10.332 2°38.701 19.1107 0.02811 0.168268 0.148626
2009-12-11 10:18:29 51°10.259 2°38.975 19.1171 0.028419 0.170198 0.18345
2009-12-11 10:19:28 51°10.204 2°39.257 19.1105 0.028727 0.172179 0.148626
2009-12-11 10:20:28 51°10.147 2°39.547 19.1473 0.03058 0.183475 0.148626
2009-12-11 10:21:29 51°10.084 2°39.835 19.1362 0.029654 0.177786 0.148626
2009-12-11 10:22:28 51°10.02 2°40.109 19.1007 0.031197 0.187259 0.18345
2009-12-11 10:23:28 51°9.957 2°40.385 19.1783 0.037577 0.226508 0.148626
2009-12-11 10:24:28 51°9.894 2°40.661 19.1555 0.034181 0.20567 0.148626
2009-12-11 10:25:29 51°9.835 2°40.942 19.1674 0.036034 0.217117 0.148626
2009-12-11 10:26:29 51°9.799 2°41.226 19.1286 0.027801 0.166751 0.18345
2009-12-11 10:27:28 51°9.787 2°41.463 19.1664 0.031094 0.186833 0.148626
2009-12-11 10:28:28 51°9.782 2°41.538 19.1482 0.027492 0.164823 0.18345
2009-12-11 10:29:29 51°9.771 2°41.541 19.1583 0.027595 0.165509 0.18345
2009-12-11 10:30:29 51°9.76 2°41.543 19.1588 0.027801 0.166722 0.148626
2009-12-11 10:31:28 51°9.749 2°41.543 19.1645 0.029859 0.179317 0.148626
2009-12-11 10:32:29 51°9.738 2°41.543 19.1699 0.027287 0.163665 0.148626
2009-12-11 10:33:28 51°9.727 2°41.542 19.1598 0.027801 0.166816 0.148626
2009-12-11 10:34:29 51°9.716 2°41.541 19.1782 0.026978 0.16178 0.148626
2009-12-11 10:35:28 51°9.706 2°41.54 19.1813 0.027184 0.163059 0.18345
2009-12-11 10:36:28 51°9.694 2°41.541 19.1651 0.027287 0.163697 0.148626
2009-12-11 10:37:29 51°9.681 2°41.543 19.1805 0.027595 0.165632 0.148626
2009-12-11 10:38:28 51°9.667 2°41.565 19.1807 0.027801 0.166914 0.148626
2009-12-11 10:39:28 51°9.673 2°41.618 19.1893 0.028007 0.168184 0.148626
2009-12-11 10:40:28 51°9.731 2°41.642 19.1821 0.027184 0.16318 0.148626
2009-12-11 10:41:28 51°9.884 2°41.62 19.1878 0.028007 0.168358 0.148626
2009-12-11 10:42:28 51°10.051 2°41.559 19.1959 0.028624 0.172176 0.148626
2009-12-11 10:43:28 51°10.208 2°41.438 19.1937 0.029756 0.179176 0.148626
2009-12-11 10:44:28 51°10.335 2°41.242 19.2103 0.028213 0.169743 0.18345
2009-12-11 10:45:28 51°10.402 2°40.979 19.2174 0.028727 0.172913 0.18345
2009-12-11 10:46:28 51°10.398 2°40.694 19.2162 0.028624 0.172355 0.148626
2009-12-11 10:47:28 51°10.376 2°40.407 19.2263 0.030991 0.186816 0.148626
2009-12-11 10:48:29 51°10.364 2°40.115 19.2459 0.032329 0.195087 0.148626
2009-12-11 10:49:28 51°10.358 2°39.834 19.247 0.032123 0.193856 0.148626
2009-12-11 10:50:29 51°10.356 2°39.542 19.2309 0.030888 0.186314 0.113802
2009-12-11 10:51:28 51°10.354 2°39.258 19.2705 0.035828 0.216838 0.148626
2009-12-11 10:52:28 51°10.354 2°38.966 19.2556 0.029345 0.17687 0.148626
2009-12-11 10:53:28 51°10.351 2°38.675 19.276 0.033564 0.202892 0.148626
2009-12-11 10:54:28 51°10.349 2°38.384 19.2878 0.029242 0.176298 0.148626
2009-12-11 10:55:28 51°10.35 2°38.091 19.2607 0.030168 0.182016 0.148626
2009-12-11 10:56:28 51°10.35 2°37.8 19.2563 0.030477 0.183922 0.18345
2009-12-11 10:57:28 51°10.349 2°37.51 19.3046 0.034387 0.208045 0.18345
2009-12-11 10:58:28 51°10.348 2°37.219 19.2839 0.031815 0.192172 0.18345
2009-12-11 10:59:28 51°10.367 2°36.931 19.3158 0.030888 0.186476 0.18345
2009-12-11 11:00:28 51°10.413 2°36.656 19.3531 0.037063 0.224603 0.148626
2009-12-11 11:01:28 51°10.533 2°36.464 19.34 0.032226 0.194675 0.148626
2009-12-11 11:02:28 51°10.704 2°36.444 19.3568 0.031506 0.190239 0.18345
2009-12-11 11:03:28 51°10.871 2°36.534 19.3336 0.028007 0.168772 0.148626
2009-12-11 11:04:28 51°11.035 2°36.633 19.3565 0.027287 0.164393 0.148626
2009-12-11 11:05:28 51°11.202 2°36.708 19.359 0.028316 0.170744 0.18345
2009-12-11 11:06:28 51°11.369 2°36.77 19.3602 0.028316 0.170784 0.18345
2009-12-11 11:07:29 51°11.538 2°36.838 19.3783 0.029242 0.176511 0.18345
2009-12-11 11:08:28 51°11.699 2°36.904 19.394 0.027698 0.167075 0.18345
2009-12-11 11:09:28 51°11.865 2°36.971 19.394 0.027801 0.16779 0.148626
2009-12-11 11:10:28 51°12.031 2°37.039 19.3987 0.02739 0.16531 0.148626
2009-12-11 11:11:28 51°12.199 2°37.105 19.3976 0.027184 0.164057 0.18345
2009-12-11 11:12:28 51°12.368 2°37.172 19.4101 0.028007 0.169134 0.18345
2009-12-11 11:13:28 51°12.533 2°37.239 19.4224 0.027698 0.167246 0.18345
2009-12-11 11:14:28 51°12.699 2°37.303 19.4121 0.027287 0.164771 0.18345
2009-12-11 11:15:28 51°12.868 2°37.351 19.4293 0.027287 0.164764 0.18345
2009-12-11 11:16:28 51°13.04 2°37.384 19.4239 0.02811 0.169835 0.148626
2009-12-11 11:17:28 51°13.213 2°37.405 19.4667 0.029962 0.181209 0.18345
2009-12-11 11:18:28 51°13.383 2°37.349 19.474 0.028419 0.171766 0.148626
2009-12-11 11:19:28 51°13.554 2°37.275 19.492 0.03058 0.185057 0.148626
2009-12-11 11:20:28 51°13.723 2°37.199 19.4653 0.028316 0.171179 0.148626
2009-12-11 11:21:28 51°13.896 2°37.122 19.4606 0.029139 0.176256 0.148626
2009-12-11 11:22:28 51°13.979 2°36.893 19.4857 0.033976 0.206085 0.148626
2009-12-11 11:23:28 51°13.964 2°36.602 19.4405 0.030168 0.182577 0.148626
2009-12-11 11:24:28 51°13.932 2°36.31 19.469 0.029962 0.181328 0.18345
2009-12-11 11:25:28 51°13.898 2°36.019 19.4875 0.030374 0.18391 0.148626
2009-12-11 11:26:28 51°13.867 2°35.727 19.4657 0.030271 0.183295 0.18345
2009-12-11 11:27:28 51°13.861 2°35.436 19.5217 0.03377 0.20495 0.148626
2009-12-11 11:28:28 51°13.992 2°35.271 19.5151 0.034181 0.207493 0.148626
2009-12-11 11:29:28 51°14.164 2°35.217 19.5108 0.029551 0.17888 0.148626
2009-12-11 11:30:28 51°14.342 2°35.208 19.527 0.02883 0.174452 0.148626
2009-12-11 11:31:28 51°14.52 2°35.203 19.5271 0.029242 0.176994 0.148626
2009-12-11 11:32:28 51°14.695 2°35.202 19.5491 0.0313 0.189762 0.148626
2009-12-11 11:33:28 51°14.871 2°35.205 19.5698 0.029551 0.179037 0.18345
2009-12-11 11:34:28 51°15.047 2°35.211 19.5675 0.02883 0.174615 0.148626
2009-12-11 11:35:28 51°15.223 2°35.214 19.5511 0.029345 0.177832 0.148626
2009-12-11 11:36:28 51°15.402 2°35.221 19.5775 0.029756 0.180416 0.148626
2009-12-11 11:37:29 51°15.574 2°35.228 19.5979 0.030477 0.184958 0.148626
2009-12-11 11:38:28 51°15.745 2°35.235 19.5908 0.030065 0.182397 0.148626
2009-12-11 11:39:29 51°15.92 2°35.242 19.6055 0.032123 0.195218 0.148626
2009-12-11 11:40:28 51°16.09 2°35.252 19.6143 0.028522 0.172952 0.148626
2009-12-11 11:41:28 51°16.268 2°35.256 19.6117 0.029139 0.176828 0.148626
2009-12-11 11:42:28 51°16.439 2°35.262 19.6425 0.029345 0.178169 0.148626
2009-12-11 11:43:28 51°16.611 2°35.264 19.6462 0.029242 0.177605 0.148626
2009-12-11 11:44:28 51°16.784 2°35.267 19.6588 0.030065 0.182762 0.148626
2009-12-11 11:45:28 51°16.958 2°35.268 19.6663 0.028624 0.173932 0.148626
2009-12-11 11:46:28 51°17.127 2°35.268 19.6556 0.029551 0.179738 0.148626
2009-12-11 11:47:28 51°17.296 2°35.263 19.6917 0.028007 0.170264 0.148626
2009-12-11 11:48:28 51°17.468 2°35.257 19.676 0.028007 0.170362 0.148626
2009-12-11 11:49:29 51°17.639 2°35.236 19.69 0.029345 0.178647 0.148626
2009-12-11 11:50:28 51°17.758 2°35.053 19.696 0.029139 0.177444 0.148626
2009-12-11 11:51:28 51°17.756 2°34.764 19.6847 0.029551 0.180052 0.18345
2009-12-11 11:52:28 51°17.667 2°34.493 19.7016 0.031094 0.189694 0.148626
2009-12-11 11:53:28 51°17.567 2°34.234 19.746 0.037269 0.228456 0.148626
2009-12-11 11:54:28 51°17.47 2°33.975 19.7579 0.031918 0.194993 0.18345
2009-12-11 11:55:28 51°17.373 2°33.72 19.7483 0.034079 0.208477 0.148626
2009-12-11 11:56:28 51°17.277 2°33.462 19.7341 0.030065 0.183542 0.148626
2009-12-11 11:57:28 51°17.18 2°33.206 19.751 0.031609 0.19323 0.148626
2009-12-11 11:58:28 51°17.085 2°32.951 19.7583 0.030786 0.188178 0.18345
2009-12-11 11:59:28 51°16.989 2°32.694 19.7698 0.030168 0.184386 0.148626
2009-12-11 12:00:28 51°16.892 2°32.436 19.8034 0.035416 0.217208 0.148626
2009-12-11 12:01:28 51°16.8 2°32.175 19.7459 0.02883 0.176111 0.148626
2009-12-11 12:02:28 51°16.707 2°31.916 19.8003 0.030683 0.187696 0.18345
2009-12-11 12:03:28 51°16.61 2°31.658 19.7914 0.029654 0.181298 0.18345
2009-12-11 12:04:29 51°16.509 2°31.398 19.7966 0.030991 0.189663 0.18345
2009-12-11 12:05:28 51°16.415 2°31.146 19.8094 0.030168 0.18455 0.148626
2009-12-11 12:06:28 51°16.321 2°30.888 19.7948 0.028625 0.174945 0.18345
2009-12-11 12:07:31 51°16.22 2°30.618 19.8967 0.037989 0.233599 0.148626
2009-12-11 12:08:26 51°16.134 2°30.386 19.8949 0.029036 0.177589 0.18345
2009-12-11 12:09:32 51°16.03 2°30.103 19.8727 0.037475 0.230481 0.148626
2009-12-11 12:10:32 51°15.96 2°29.828 19.8813 0.036754 0.225957 0.18345
2009-12-11 12:11:32 51°15.906 2°29.544 19.8692 0.030271 0.185348 0.148626
2009-12-11 12:12:32 51°15.863 2°29.254 19.8999 0.031609 0.193717 0.148626
2009-12-11 12:13:32 51°15.819 2°28.961 19.9078 0.029036 0.177686 0.148626
2009-12-11 12:14:32 51°15.775 2°28.67 19.9311 0.02883 0.176423 0.148626
2009-12-11 12:15:32 51°15.727 2°28.38 19.9261 0.032535 0.199575 0.148626
2009-12-11 12:16:32 51°15.681 2°28.086 19.898 0.030786 0.188639 0.18345
2009-12-11 12:17:32 51°15.633 2°27.794 19.9474 0.030477 0.18673 0.148626
2009-12-11 12:18:32 51°15.582 2°27.503 19.9331 0.032329 0.198331 0.18345
2009-12-11 12:19:32 51°15.528 2°27.21 19.9338 0.030065 0.184195 0.148626
2009-12-11 12:20:33 51°15.474 2°26.909 20.0557 0.035725 0.219653 0.148626
2009-12-11 12:21:32 51°15.423 2°26.62 19.974 0.028625 0.175237 0.18345
2009-12-11 12:22:32 51°15.391 2°26.313 19.9341 0.030991 0.189994 0.18345
2009-12-11 12:23:32 51°15.39 2°25.999 19.976 0.029859 0.182922 0.18345
2009-12-11 12:24:32 51°15.329 2°25.701 20.0006 0.035622 0.219051 0.18345
2009-12-11 12:25:32 51°15.281 2°25.395 20.0368 0.039944 0.246366 0.148626
2009-12-11 12:26:32 51°15.248 2°25.09 20.0067 0.030477 0.18681 0.148626
2009-12-11 12:27:32 51°15.233 2°24.889 20.0235 0.0313 0.191943 0.148626
2009-12-11 12:28:32 51°15.228 2°24.752 20.0259 0.032535 0.199661 0.148626
2009-12-11 12:29:32 51°15.241 2°24.613 20.0429 0.033358 0.204843 0.148626
2009-12-11 12:30:32 51°15.282 2°24.474 20.0522 0.030477 0.186772 0.18345
2009-12-11 12:31:32 51°15.324 2°24.385 20.0566 0.029962 0.18356 0.148626
2009-12-11 12:32:32 51°15.363 2°24.324 20.0563 0.031403 0.192532 0.148626
2009-12-11 12:33:32 51°15.406 2°24.264 20.0477 0.030065 0.184147 0.148626
2009-12-11 12:34:32 51°15.441 2°24.182 20.063 0.029859 0.182878 0.148626
2009-12-11 12:35:32 51°15.478 2°24.102 20.0685 0.030683 0.188031 0.148626
2009-12-11 12:36:32 51°15.515 2°24.044 20.0652 0.030271 0.185438 0.148626
2009-12-11 12:37:32 51°15.557 2°24.008 20.089 0.02883 0.176462 0.148626
2009-12-11 12:38:32 51°15.598 2°23.998 20.0905 0.029756 0.182236 0.148626
2009-12-11 12:39:32 51°15.639 2°24.013 20.1028 0.02883 0.176458 0.148626
2009-12-11 12:40:32 51°15.671 2°24.053 20.0957 0.028522 0.174562 0.148626
2009-12-11 12:41:32 51°15.705 2°24.103 20.1111 0.026978 0.164982 0.148626
2009-12-11 12:42:32 51°15.734 2°24.16 20.1071 0.026875 0.16435 0.148626
2009-12-11 12:43:32 51°15.751 2°24.225 20.1168 0.027698 0.169486 0.18345
2009-12-11 12:44:32 51°15.769 2°24.294 20.1149 0.026669 0.163151 0.148626
2009-12-11 12:45:32 51°15.787 2°24.366 20.1236 0.026463 0.1619 0.148626
2009-12-11 12:46:32 51°15.807 2°24.436 20.1243 0.026361 0.161274 0.148626
2009-12-11 12:47:32 51°15.828 2°24.505 20.1277 0.026361 0.161293 0.148626
2009-12-11 12:48:32 51°15.851 2°24.577 20.1288 0.026669 0.163285 0.148626
2009-12-11 12:49:32 51°15.874 2°24.65 20.1356 0.026463 0.162065 0.148626
2009-12-11 12:50:33 51°15.899 2°24.718 20.1366 0.026463 0.162078 0.18345
2009-12-11 12:51:32 51°15.93 2°24.774 20.1343 0.026772 0.164049 0.148626
2009-12-11 12:52:32 51°15.965 2°24.828 20.1449 0.027801 0.170561 0.148626
2009-12-11 12:53:32 51°16.004 2°24.879 20.1478 0.027493 0.16862 0.18345
2009-12-11 12:54:32 51°16.047 2°24.931 20.1601 0.027081 0.16605 0.18345
2009-12-11 12:55:32 51°16.087 2°24.982 20.1459 0.027184 0.166758 0.148626
2009-12-11 12:56:32 51°16.129 2°25.026 20.1589 0.026669 0.163567 0.148626
2009-12-11 12:57:32 51°16.173 2°25.07 20.1607 0.026875 0.164914 0.18345
2009-12-11 12:58:32 51°16.211 2°25.108 20.1655 0.02811 0.172686 0.148626
2009-12-11 12:59:32 51°16.251 2°25.148 20.1708 0.027904 0.171404 0.18345
2009-12-11 13:00:32 51°16.297 2°25.194 20.1682 0.027801 0.17082 0.148626
2009-12-11 13:01:32 51°16.342 2°25.24 20.178 0.026669 0.163857 0.18345
2009-12-11 13:02:32 51°16.385 2°25.288 20.1812 0.026155 0.16061 0.18345
2009-12-11 13:03:32 51°16.424 2°25.328 20.1842 0.026361 0.161893 0.18345
2009-12-11 13:04:32 51°16.461 2°25.364 20.1909 0.026566 0.163241 0.148626
2009-12-11 13:05:32 51°16.498 2°25.401 20.1876 0.027081 0.166485 0.18345
2009-12-11 13:06:32 51°16.534 2°25.44 20.1851 0.026361 0.162023 0.148626
2009-12-11 13:07:32 51°16.574 2°25.461 20.1989 0.026669 0.163999 0.18345
2009-12-11 13:08:32 51°16.623 2°25.419 20.2061 0.030477 0.18797 0.18345
2009-12-11 13:09:32 51°16.673 2°25.352 20.1916 0.029962 0.184721 0.18345
2009-12-11 13:10:32 51°16.717 2°25.279 20.2252 0.031197 0.192597 0.18345
2009-12-11 13:11:32 51°16.756 2°25.193 20.2147 0.030786 0.190005 0.148626
2009-12-11 13:12:32 51°16.793 2°25.112 20.2289 0.031712 0.195855 0.148626
2009-12-11 13:13:32 51°16.832 2°25.041 20.2384 0.030168 0.186144 0.18345
2009-12-11 13:14:32 51°16.87 2°24.971 20.2457 0.030271 0.186883 0.18345
2009-12-11 13:15:32 51°16.908 2°24.906 20.2339 0.03058 0.188787 0.18345
2009-12-11 13:16:32 51°16.94 2°24.846 20.2291 0.029448 0.181679 0.18345
2009-12-11 13:17:32 51°16.971 2°24.787 20.2488 0.031403 0.194089 0.18345
2009-12-11 13:18:32 51°17.004 2°24.737 20.2479 0.029962 0.185001 0.18345
2009-12-11 13:19:32 51°17.031 2°24.693 20.2686 0.030991 0.191509 0.18345
2009-12-11 13:20:32 51°17.031 2°24.647 20.2516 0.029654 0.183077 0.18345
2009-12-11 13:21:32 51°17.026 2°24.599 20.2515 0.030065 0.185732 0.18345
2009-12-11 13:22:32 51°17.048 2°24.571 20.2628 0.03058 0.188973 0.18345
2009-12-11 13:23:32 51°17.04 2°24.615 20.276 0.026978 0.166394 0.18345
2009-12-11 13:24:32 51°16.948 2°24.711 20.2861 0.026978 0.166438 0.148626
2009-12-11 13:25:32 51°16.824 2°24.891 20.2855 0.027904 0.172282 0.18345
2009-12-11 13:26:32 51°16.675 2°25.043 20.2836 0.028522 0.176305 0.18345
2009-12-11 13:27:32 51°16.515 2°25.154 20.2786 0.028419 0.175737 0.18345
2009-12-11 13:28:32 51°16.356 2°25.267 20.2669 0.026669 0.164744 0.18345
2009-12-11 13:29:32 51°16.234 2°25.374 20.2798 0.026875 0.166072 0.18345
2009-12-11 13:30:32 51°16.163 2°25.434 20.2662 0.026875 0.166069 0.18345
2009-12-11 13:31:32 51°16.134 2°25.438 20.2724 0.02811 0.173936 0.18345
2009-12-11 13:32:32 51°16.115 2°25.414 20.2709 0.029036 0.179816 0.18345
2009-12-11 13:33:32 51°16.103 2°25.377 20.2891 0.026875 0.166184 0.18345
2009-12-11 13:34:32 51°16.091 2°25.334 20.2793 0.02811 0.17399 0.18345
2009-12-11 13:35:32 51°16.077 2°25.291 20.2738 0.026361 0.162983 0.18345
2009-12-11 13:36:32 51°16.065 2°25.254 20.2852 0.027287 0.168826 0.18345
2009-12-11 13:37:32 51°16.052 2°25.215 20.2789 0.026669 0.164931 0.18345
2009-12-11 13:38:32 51°16.039 2°25.175 20.2742 0.026155 0.161717 0.18345
2009-12-11 13:39:32 51°16.024 2°25.137 20.2752 0.025743 0.159163 0.18345
2009-12-11 13:40:32 51°16.01 2°25.101 20.2762 0.025846 0.159799 0.18345
2009-12-11 13:41:32 51°15.994 2°25.067 20.2889 0.027081 0.167644 0.18345
2009-12-11 13:42:32 51°15.976 2°25.033 20.2896 0.026361 0.163128 0.18345
2009-12-11 13:43:32 51°15.959 2°24.997 20.272 0.026155 0.161868 0.18345
2009-12-11 13:44:32 51°15.944 2°24.962 20.2788 0.027081 0.167696 0.18345
2009-12-11 13:45:32 51°15.928 2°24.923 20.269 0.026052 0.161264 0.18345
2009-12-11 13:46:32 51°15.913 2°24.887 20.2807 0.025537 0.158013 0.18345
2009-12-11 13:47:32 51°15.881 2°24.867 20.2795 0.026258 0.162535 0.18345
2009-12-11 13:48:32 51°15.783 2°24.839 20.2741 0.026361 0.163241 0.18345
2009-12-11 13:49:32 51°15.723 2°24.96 20.2836 0.025949 0.160663 0.18345
2009-12-11 13:50:32 51°15.691 2°25.183 20.2503 0.028522 0.176967 0.218274
2009-12-11 13:51:32 51°15.681 2°25.416 20.27 0.029859 0.185497 0.218274
2009-12-11 13:52:32 51°15.683 2°25.653 20.2801 0.031197 0.194012 0.18345
2009-12-11 13:53:32 51°15.683 2°25.89 20.2967 0.027287 0.169285 0.18345
2009-12-11 13:54:32 51°15.682 2°26.126 20.2928 0.028419 0.176422 0.18345
2009-12-11 13:55:32 51°15.703 2°26.358 20.2673 0.028007 0.17385 0.18345
2009-12-11 13:56:32 51°15.741 2°26.589 20.2689 0.030065 0.186928 0.18345
2009-12-11 13:57:32 51°15.778 2°26.822 20.283 0.026875 0.166734 0.18345
2009-12-11 13:58:32 51°15.815 2°27.059 20.2782 0.026772 0.166109 0.18345
2009-12-11 13:59:32 51°15.85 2°27.303 20.2844 0.027698 0.17195 0.18345
2009-12-11 14:00:32 51°15.882 2°27.549 20.2946 0.028625 0.177811 0.18345
2009-12-11 14:01:33 51°15.915 2°27.785 20.2776 0.027698 0.171996 0.18345
2009-12-11 14:02:32 51°15.976 2°28.003 20.2947 0.027081 0.168087 0.18345
2009-12-11 14:03:32 51°16.041 2°28.223 20.2872 0.026361 0.163544 0.18345
2009-12-11 14:04:32 51°16.103 2°28.446 20.3 0.026052 0.161599 0.18345
2009-12-11 14:05:32 51°16.165 2°28.674 20.2934 0.027184 0.168733 0.18345
2009-12-11 14:06:33 51°16.224 2°28.898 20.2935 0.027904 0.173289 0.18345
2009-12-11 14:07:32 51°16.282 2°29.114 20.2943 0.026669 0.165524 0.18345
2009-12-11 14:08:32 51°16.345 2°29.341 20.2972 0.029345 0.182439 0.18345
2009-12-11 14:09:32 51°16.407 2°29.566 20.309 0.026978 0.167475 0.18345
2009-12-11 14:10:32 51°16.466 2°29.787 20.3119 0.026772 0.166173 0.18345
2009-12-11 14:11:32 51°16.529 2°30.015 20.3046 0.02739 0.170074 0.18345
2009-12-11 14:12:33 51°16.585 2°30.235 20.2995 0.027184 0.168788 0.18345
2009-12-11 14:13:32 51°16.645 2°30.455 20.3035 0.026052 0.161659 0.18345
2009-12-11 14:14:32 51°16.705 2°30.681 20.3163 0.027595 0.171395 0.18345
2009-12-11 14:15:32 51°16.761 2°30.893 20.3093 0.027184 0.168792 0.18345
2009-12-11 14:16:32 51°16.821 2°31.112 20.3142 0.026155 0.162314 0.18345
2009-12-11 14:17:32 51°16.882 2°31.332 20.3324 0.026978 0.167547 0.18345
2009-12-11 14:18:32 51°16.943 2°31.556 20.3134 0.026669 0.165585 0.148626
2009-12-11 14:19:32 51°17.007 2°31.782 20.3289 0.027184 0.168826 0.18345
2009-12-11 14:20:33 51°17.065 2°32.004 20.325 0.027493 0.170804 0.18345
2009-12-11 14:21:32 51°17.124 2°32.227 20.3278 0.027287 0.169493 0.18345
2009-12-11 14:22:32 51°17.184 2°32.453 20.3333 0.027184 0.168854 0.18345
2009-12-11 14:23:32 51°17.243 2°32.681 20.3351 0.027287 0.169497 0.18345
2009-12-11 14:24:32 51°17.305 2°32.901 20.3594 0.027904 0.173421 0.18345
2009-12-11 14:25:32 51°17.366 2°33.125 20.3437 0.027184 0.168909 0.18345
2009-12-11 14:26:32 51°17.428 2°33.35 20.3443 0.027184 0.168854 0.18345
2009-12-11 14:27:32 51°17.495 2°33.575 14.3657 0.030477 0.189807 0.148626
2009-12-11 14:28:32 51°17.557 2°33.799 16.7771 0.02883 0.17935 0.148626
2009-12-11 14:29:32 51°17.622 2°34.023 17.3779 0.027595 0.171508 0.148626
2009-12-11 14:30:32 51°17.674 2°34.258 17.3898 0.028213 0.175414 0.148626
2009-12-11 14:31:32 51°17.708 2°34.502 17.4894 0.028316 0.176101 0.148626
2009-12-11 14:32:32 51°17.735 2°34.748 18.0369 0.026875 0.166966 0.18345
2009-12-11 14:33:32 51°17.744 2°34.994 17.8726 0.026978 0.167595 0.18345
2009-12-11 14:34:32 51°17.744 2°35.245 18.2225 0.028213 0.175435 0.18345
2009-12-11 14:35:32 51°17.72 2°35.494 18.17 0.026772 0.166347 0.18345
2009-12-11 14:36:32 51°17.673 2°35.735 18.7065 0.028007 0.174176 0.18345
2009-12-11 14:37:32 51°17.635 2°35.972 18.831 0.028522 0.17743 0.18345
2009-12-11 14:38:32 51°17.598 2°36.209 18.8811 0.028727 0.178705 0.253098
2009-12-11 14:39:32 51°17.576 2°36.452 18.8213 0.026875 0.166966 0.18345
2009-12-11 14:40:32 51°17.556 2°36.709 18.1943 0.02739 0.17022 0.18345
2009-12-11 14:41:32 51°17.537 2°36.968 18.1911 0.027493 0.170924 0.218274
2009-12-11 14:42:32 51°17.515 2°37.223 18.1719 0.026258 0.163059 0.18345
2009-12-11 14:43:32 51°17.495 2°37.476 18.3017 0.026464 0.164354 0.18345
2009-12-11 14:44:32 51°17.473 2°37.733 18.5188 0.030065 0.187223 0.18345
2009-12-11 14:45:32 51°17.452 2°37.985 18.5803 0.028419 0.176768 0.18345
2009-12-11 14:46:32 51°17.431 2°38.238 18.6094 0.027287 0.169643 0.18345
2009-12-11 14:47:32 51°17.411 2°38.492 18.6341 0.02739 0.170294 0.218274
2009-12-11 14:48:32 51°17.398 2°38.748 18.5733 0.026669 0.165694 0.18345
2009-12-11 14:49:32 51°17.391 2°39.004 18.5878 0.026361 0.163742 0.18345
2009-12-11 14:50:32 51°17.382 2°39.257 18.6635 0.027595 0.171543 0.18345
2009-12-11 14:51:32 51°17.376 2°39.505 18.7266 0.033873 0.21151 0.18345
2009-12-11 14:52:32 51°17.365 2°39.75 18.723 0.028316 0.176185 0.148626
2009-12-11 14:53:32 51°17.353 2°39.997 18.7539 0.030477 0.189905 0.18345
2009-12-11 14:54:32 51°17.34 2°40.242 18.6906 0.026669 0.165775 0.18345
2009-12-11 14:55:32 51°17.338 2°40.489 18.7821 0.027493 0.170987 0.18345
2009-12-11 14:56:32 51°17.348 2°40.735 18.8057 0.027595 0.171589 0.18345
2009-12-11 14:57:32 51°17.356 2°40.984 18.7621 0.026669 0.165748 0.18345
2009-12-11 14:58:32 51°17.368 2°41.233 18.8157 0.026258 0.163162 0.18345
2009-12-11 14:59:32 51°17.378 2°41.485 18.8614 0.027287 0.169667 0.18345
2009-12-11 15:00:32 51°17.387 2°41.738 18.8604 0.026875 0.167134 0.18345
2009-12-11 15:01:32 51°17.396 2°41.992 18.9004 0.026566 0.165135 0.148626
2009-12-11 15:02:32 51°17.406 2°42.247 18.8503 0.031197 0.194557 0.148626
2009-12-11 15:03:32 51°17.418 2°42.5 18.8577 0.026361 0.163866 0.18345
2009-12-11 15:04:32 51°17.429 2°42.751 18.864 0.028933 0.180151 0.18345
2009-12-11 15:05:32 51°17.442 2°42.997 18.8858 0.02883 0.179494 0.18345
2009-12-11 15:06:32 51°17.436 2°43.244 18.9939 0.029139 0.181509 0.18345
2009-12-11 15:07:32 51°17.404 2°43.489 18.8916 0.027596 0.171687 0.18345
2009-12-11 15:08:32 51°17.355 2°43.739 18.9492 0.026978 0.167802 0.18345
2009-12-11 15:09:32 51°17.27 2°43.971 18.9598 0.027287 0.169762 0.18345
2009-12-11 15:10:32 51°17.135 2°44.16 19.0196 0.029962 0.186755 0.18345
2009-12-11 15:11:32 51°16.985 2°44.324 19.0043 0.028007 0.174319 0.18345
2009-12-11 15:12:32 51°16.831 2°44.486 18.9776 0.028316 0.176272 0.148626
2009-12-11 15:13:32 51°16.693 2°44.668 18.9685 0.027904 0.173699 0.148626
2009-12-11 15:14:47 51°16.546 2°44.926 18.9609 0.034387 0.215034 0.18345
2009-12-11 15:16:04 51°16.394 2°45.195 18.9556 0.03305 0.206438 0.18345
2009-12-11 15:17:06 51°16.268 2°45.412 18.9765 0.030271 0.188757 0.18345
2009-12-11 15:18:06 51°16.157 2°45.631 18.9433 0.028007 0.174366 0.18345
2009-12-11 15:19:06 51°16.055 2°45.859 19.0045 0.030065 0.187475 0.18345
2009-12-11 15:20:06 51°15.956 2°46.088 18.9395 0.031094 0.194019 0.18345
2009-12-11 15:21:06 51°15.865 2°46.319 18.8626 0.034593 0.216406 0.18345
2009-12-11 15:22:06 51°15.788 2°46.559 19.0068 0.028419 0.177063 0.18345
2009-12-11 15:23:06 51°15.738 2°46.806 18.9978 0.028419 0.177056 0.18345
2009-12-11 15:24:06 51°15.714 2°47.061 18.924 0.03305 0.206577 0.18345
2009-12-11 15:25:06 51°15.697 2°47.315 19.0031 0.029036 0.181013 0.18345
2009-12-11 15:26:06 51°15.679 2°47.57 18.9937 0.027493 0.171202 0.18345
2009-12-11 15:27:06 51°15.657 2°47.827 18.9624 0.03377 0.211215 0.18345
2009-12-11 15:28:06 51°15.637 2°48.084 19.0234 0.029859 0.186232 0.18345
2009-12-11 15:29:06 51°15.614 2°48.344 19.0511 0.027493 0.171216 0.18345
2009-12-11 15:30:06 51°15.593 2°48.603 19.0316 0.028007 0.17451 0.18345
2009-12-11 15:31:06 51°15.572 2°48.863 19.0017 0.031506 0.196769 0.18345
2009-12-11 15:32:06 51°15.547 2°49.126 19.0601 0.027904 0.173879 0.18345
2009-12-11 15:33:06 51°15.521 2°49.387 19.06 0.027287 0.169936 0.18345
2009-12-11 15:34:06 51°15.489 2°49.635 19.0745 0.02739 0.170637 0.18345
2009-12-11 15:35:06 51°15.456 2°49.896 19.0552 0.028316 0.176487 0.18345
2009-12-11 15:36:06 51°15.423 2°50.161 19.0454 0.027698 0.172595 0.18345
2009-12-11 15:37:06 51°15.391 2°50.425 19.078 0.026978 0.167998 0.18345
2009-12-11 15:38:06 51°15.354 2°50.688 19.0365 0.029242 0.182389 0.18345
2009-12-11 15:39:06 51°15.32 2°50.945 19.0851 0.02739 0.170623 0.18345
2009-12-11 15:40:06 51°15.289 2°51.201 19.0865 0.029448 0.183751 0.18345
2009-12-11 15:41:06 51°15.27 2°51.46 19.0799 0.029345 0.183116 0.18345
2009-12-11 15:42:06 51°15.243 2°51.717 19.0529 0.028522 0.177874 0.18345
2009-12-11 15:43:06 51°15.175 2°51.966 19.0989 0.029551 0.184402 0.18345
2009-12-11 15:44:06 51°15.098 2°52.213 19.1135 0.027904 0.173943 0.18345
2009-12-11 15:45:06 51°15.029 2°52.465 19.1077 0.027493 0.171332 0.18345
2009-12-11 15:46:06 51°14.977 2°52.725 19.1016 0.029448 0.183759 0.18345
2009-12-11 15:47:06 51°14.941 2°52.99 19.0637 0.027698 0.172687 0.18345
2009-12-11 15:48:06 51°14.901 2°53.253 19.1108 0.031197 0.194926 0.18345
2009-12-11 15:49:06 51°14.837 2°53.51 19.0802 0.031918 0.199588 0.218274
2009-12-11 15:50:06 51°14.768 2°53.765 19.0641 0.028522 0.177948 0.18345
2009-12-11 15:51:06 51°14.7 2°54.018 19.0993 0.02739 0.170711 0.18345
2009-12-11 15:52:06 51°14.626 2°54.268 19.084 0.027493 0.171392 0.218274
2009-12-11 15:53:06 51°14.543 2°54.514 19.1118 0.027493 0.171428 0.18345
2009-12-11 15:54:06 51°14.452 2°54.752 19.1071 0.026669 0.166194 0.18345
2009-12-11 15:55:06 51°14.367 2°54.994 19.1335 0.030271 0.189068 0.18345
2009-12-11 15:56:06 51°14.272 2°55.228 19.0938 0.026669 0.166201 0.218274
2009-12-11 15:57:06 51°14.14 2°55.398 19.1166 0.026875 0.167481 0.18345
2009-12-11 15:58:06 51°13.994 2°55.504 19.1149 0.025846 0.16094 0.18345
2009-12-11 15:59:06 51°13.883 2°55.586 19.112 0.026772 0.166812 0.18345
2009-12-11 16:00:06 51°13.784 2°55.677 19.1203 0.026258 0.16354 0.18345
2009-12-11 16:01:10 51°13.716 2°55.79 19.1273 0.027493 0.171346 0.218274
2009-12-11 16:02:10 51°13.679 2°55.89 19.134 0.027184 0.169378 0.18345
2009-12-11 16:03:10 51°13.664 2°55.955 19.1403 0.026875 0.167381 0.18345